Almonesson, New Jersey
Current Conditions -  °F | °C
As of 1:54 AM on Sunday 26 Oct 2014 (Local Time) from KPHL Reporting Station
Overcast Overcast  
Wind Chill: 60°   Ceiling: 7500
Heat Index: 60°   Visibility: 10mi
Dew Point: 47°   Wind: 10mph
Humidity: 62%   Direction: 220°SW
Pressure: 29.61"   Gusts: NA
Location:  39.8266°N, 75.1276°W
Report Text: KPHL 260554Z 22009KT 10SM FEW055 BKN075 OVC090 16/08 A2961 RMK AO2 RAB10E18 SLP027 P0000 60000 T01560083 10178 20144 56015
Loading
Personal Weather Stations






























Interactive Weather Map New forecast layout! Learn more

10-Day Weather Forecast

Advertisements
Track Severe Weather on mobile